sensor_id;sensor_type;location;lat;lon;timestamp;pressure;altitude;pressure_sealevel;temperature;humidity
76086;BME280;64791;0.000;0.000;2023-07-02T00:01:19;93199.28;;;14.34;77.61
76086;BME280;64791;0.000;0.000;2023-07-02T00:03:44;93205.97;;;14.41;79.51
76086;BME280;64791;0.000;0.000;2023-07-02T00:06:10;93198.25;;;14.40;77.75
76086;BME280;64791;0.000;0.000;2023-07-02T00:08:36;93193.13;;;14.36;79.43
76086;BME280;64791;0.000;0.000;2023-07-02T00:11:01;93185.00;;;14.19;79.81
76086;BME280;64791;0.000;0.000;2023-07-02T00:13:27;93194.38;;;14.14;79.25
76086;BME280;64791;0.000;0.000;2023-07-02T00:15:53;93187.09;;;14.09;79.18
76086;BME280;64791;0.000;0.000;2023-07-02T00:18:18;93189.41;;;14.12;80.00
76086;BME280;64791;0.000;0.000;2023-07-02T00:20:44;93186.41;;;13.99;79.46
76086;BME280;64791;0.000;0.000;2023-07-02T00:23:10;93181.00;;;13.91;80.11
76086;BME280;64791;0.000;0.000;2023-07-02T00:25:36;93187.13;;;13.99;79.46
76086;BME280;64791;0.000;0.000;2023-07-02T00:28:02;93182.44;;;14.11;78.79
76086;BME280;64791;0.000;0.000;2023-07-02T00:30:28;93190.69;;;14.21;79.01
76086;BME280;64791;0.000;0.000;2023-07-02T00:32:53;93184.13;;;14.26;78.83
76086;BME280;64791;0.000;0.000;2023-07-02T00:35:19;93177.97;;;14.27;77.57
76086;BME280;64791;0.000;0.000;2023-07-02T00:37:45;93185.53;;;14.46;76.56
76086;BME280;64791;0.000;0.000;2023-07-02T00:40:11;93185.94;;;14.52;75.88
76086;BME280;64791;0.000;0.000;2023-07-02T00:42:36;93181.97;;;14.55;76.96
76086;BME280;64791;0.000;0.000;2023-07-02T00:45:03;93173.97;;;14.50;78.12
76086;BME280;64791;0.000;0.000;2023-07-02T00:47:35;93185.88;;;14.31;76.34
76086;BME280;64791;0.000;0.000;2023-07-02T00:50:01;93181.50;;;14.28;77.00
76086;BME280;64791;0.000;0.000;2023-07-02T00:52:27;93180.47;;;14.23;77.61
76086;BME280;64791;0.000;0.000;2023-07-02T00:54:53;93181.81;;;14.22;77.22
76086;BME280;64791;0.000;0.000;2023-07-02T00:57:19;93177.72;;;14.23;78.50
76086;BME280;64791;0.000;0.000;2023-07-02T00:59:44;93173.50;;;14.13;79.28
76086;BME280;64791;0.000;0.000;2023-07-02T01:02:10;93183.00;;;14.10;79.32
76086;BME280;64791;0.000;0.000;2023-07-02T01:04:38;93176.00;;;14.09;78.71
76086;BME280;64791;0.000;0.000;2023-07-02T01:07:04;93188.25;;;14.15;78.35
76086;BME280;64791;0.000;0.000;2023-07-02T01:09:34;93189.13;;;14.08;80.14
76086;BME280;64791;0.000;0.000;2023-07-02T01:12:00;93196.84;;;14.10;79.52
76086;BME280;64791;0.000;0.000;2023-07-02T01:14:32;93197.72;;;14.12;79.18
76086;BME280;64791;0.000;0.000;2023-07-02T01:16:59;93192.78;;;14.11;80.91
76086;BME280;64791;0.000;0.000;2023-07-02T01:21:59;93200.97;;;14.09;80.74
76086;BME280;64791;0.000;0.000;2023-07-02T01:24:26;93212.97;;;13.92;81.51
76086;BME280;64791;0.000;0.000;2023-07-02T01:26:51;93225.09;;;13.87;82.55
76086;BME280;64791;0.000;0.000;2023-07-02T01:29:20;93233.13;;;13.83;83.68
76086;BME280;64791;0.000;0.000;2023-07-02T01:31:46;93232.97;;;13.81;83.73
76086;BME280;64791;0.000;0.000;2023-07-02T01:34:13;93229.28;;;13.88;84.12
76086;BME280;64791;0.000;0.000;2023-07-02T01:36:38;93238.34;;;13.89;84.14
76086;BME280;64791;0.000;0.000;2023-07-02T01:39:05;93235.00;;;13.90;84.81
76086;BME280;64791;0.000;0.000;2023-07-02T01:41:42;93232.38;;;13.92;85.65
76086;BME280;64791;0.000;0.000;2023-07-02T01:44:08;93226.38;;;13.96;84.72
76086;BME280;64791;0.000;0.000;2023-07-02T01:46:34;93217.31;;;14.05;84.45
76086;BME280;64791;0.000;0.000;2023-07-02T01:48:59;93209.84;;;14.17;83.79
76086;BME280;64791;0.000;0.000;2023-07-02T01:51:25;93193.59;;;14.32;83.14
76086;BME280;64791;0.000;0.000;2023-07-02T01:53:50;93181.22;;;14.24;82.83
76086;BME280;64791;0.000;0.000;2023-07-02T01:56:16;93163.06;;;14.32;82.11
76086;BME280;64791;0.000;0.000;2023-07-02T01:58:43;93159.69;;;14.34;80.80
76086;BME280;64791;0.000;0.000;2023-07-02T02:01:09;93164.31;;;14.51;78.86
76086;BME280;64791;0.000;0.000;2023-07-02T02:03:34;93155.59;;;14.45;79.59
76086;BME280;64791;0.000;0.000;2023-07-02T02:06:01;93160.97;;;14.43;80.96
76086;BME280;64791;0.000;0.000;2023-07-02T02:08:26;93166.25;;;14.48;81.61
76086;BME280;64791;0.000;0.000;2023-07-02T02:10:52;93154.09;;;14.53;82.72
76086;BME280;64791;0.000;0.000;2023-07-02T02:13:18;93160.19;;;14.61;81.95
76086;BME280;64791;0.000;0.000;2023-07-02T02:15:43;93169.84;;;14.60;81.67
76086;BME280;64791;0.000;0.000;2023-07-02T02:18:09;93143.94;;;14.67;80.60
76086;BME280;64791;0.000;0.000;2023-07-02T02:20:35;93144.94;;;14.72;82.16
76086;BME280;64791;0.000;0.000;2023-07-02T02:23:00;93142.34;;;14.64;81.79
76086;BME280;64791;0.000;0.000;2023-07-02T02:25:26;93153.31;;;14.62;81.19
76086;BME280;64791;0.000;0.000;2023-07-02T02:27:52;93184.44;;;14.61;80.83
76086;BME280;64791;0.000;0.000;2023-07-02T02:30:18;93195.97;;;14.57;81.38
76086;BME280;64791;0.000;0.000;2023-07-02T02:32:43;93204.63;;;14.52;81.71
76086;BME280;64791;0.000;0.000;2023-07-02T02:35:10;93193.13;;;14.46;84.46
76086;BME280;64791;0.000;0.000;2023-07-02T02:37:38;93193.88;;;14.36;84.97
76086;BME280;64791;0.000;0.000;2023-07-02T02:40:08;93197.50;;;14.39;83.02
76086;BME280;64791;0.000;0.000;2023-07-02T02:42:36;93190.09;;;14.32;84.31
76086;BME280;64791;0.000;0.000;2023-07-02T02:45:03;93163.94;;;14.35;83.10
76086;BME280;64791;0.000;0.000;2023-07-02T02:47:28;93167.75;;;14.30;86.22
76086;BME280;64791;0.000;0.000;2023-07-02T02:49:55;93167.16;;;14.31;84.70
76086;BME280;64791;0.000;0.000;2023-07-02T02:52:20;93155.03;;;14.46;83.59
76086;BME280;64791;0.000;0.000;2023-07-02T02:54:46;93159.50;;;14.51;84.40
76086;BME280;64791;0.000;0.000;2023-07-02T02:57:12;93157.13;;;14.57;83.63
76086;BME280;64791;0.000;0.000;2023-07-02T02:59:38;93141.09;;;14.77;82.69
76086;BME280;64791;0.000;0.000;2023-07-02T03:02:04;93135.63;;;14.67;80.89
76086;BME280;64791;0.000;0.000;2023-07-02T03:04:30;93142.81;;;14.61;82.89
76086;BME280;64791;0.000;0.000;2023-07-02T03:06:56;93141.75;;;14.66;83.53
76086;BME280;64791;0.000;0.000;2023-07-02T03:09:22;93143.69;;;14.63;82.90
76086;BME280;64791;0.000;0.000;2023-07-02T03:11:47;93146.13;;;14.69;83.68
76086;BME280;64791;0.000;0.000;2023-07-02T03:14:13;93142.19;;;14.72;84.27
76086;BME280;64791;0.000;0.000;2023-07-02T03:16:40;93140.56;;;14.69;82.96
76086;BME280;64791;0.000;0.000;2023-07-02T03:19:06;93141.88;;;14.68;83.70
76086;BME280;64791;0.000;0.000;2023-07-02T03:21:32;93128.56;;;14.76;82.76
76086;BME280;64791;0.000;0.000;2023-07-02T03:23:58;93134.44;;;14.91;82.34
76086;BME280;64791;0.000;0.000;2023-07-02T03:26:23;93137.03;;;14.99;81.88
76086;BME280;64791;0.000;0.000;2023-07-02T03:28:49;93140.41;;;14.97;81.14
76086;BME280;64791;0.000;0.000;2023-07-02T03:31:15;93142.22;;;15.04;81.11
76086;BME280;64791;0.000;0.000;2023-07-02T03:33:41;93148.22;;;15.10;81.51
76086;BME280;64791;0.000;0.000;2023-07-02T03:36:06;93147.84;;;15.16;81.19
76086;BME280;64791;0.000;0.000;2023-07-02T03:38:32;93152.69;;;15.16;80.91
76086;BME280;64791;0.000;0.000;2023-07-02T03:40:58;93147.59;;;15.12;81.33
76086;BME280;64791;0.000;0.000;2023-07-02T03:43:24;93142.03;;;15.12;80.83
76086;BME280;64791;0.000;0.000;2023-07-02T03:45:52;93142.22;;;15.04;81.32
76086;BME280;64791;0.000;0.000;2023-07-02T03:48:18;93144.34;;;15.16;80.71
76086;BME280;64791;0.000;0.000;2023-07-02T03:50:44;93144.34;;;15.16;81.51
76086;BME280;64791;0.000;0.000;2023-07-02T03:53:09;93161.34;;;15.10;82.23
76086;BME280;64791;0.000;0.000;2023-07-02T03:55:35;93171.72;;;15.09;82.63
76086;BME280;64791;0.000;0.000;2023-07-02T03:58:01;93179.34;;;15.09;82.96
76086;BME280;64791;0.000;0.000;2023-07-02T04:00:27;93183.75;;;15.02;82.37
76086;BME280;64791;0.000;0.000;2023-07-02T04:02:53;93175.19;;;14.68;85.90
76086;BME280;64791;0.000;0.000;2023-07-02T04:05:19;93174.47;;;14.67;86.06
76086;BME280;64791;0.000;0.000;2023-07-02T04:07:45;93173.00;;;14.66;86.11
76086;BME280;64791;0.000;0.000;2023-07-02T04:10:11;93171.63;;;14.77;83.99
76086;BME280;64791;0.000;0.000;2023-07-02T04:12:37;93178.19;;;14.81;84.11
76086;BME280;64791;0.000;0.000;2023-07-02T04:15:02;93175.25;;;14.89;83.83
76086;BME280;64791;0.000;0.000;2023-07-02T04:17:28;93180.13;;;15.00;83.15
76086;BME280;64791;0.000;0.000;2023-07-02T04:19:54;93167.19;;;15.14;82.93
76086;BME280;64791;0.000;0.000;2023-07-02T04:22:20;93167.91;;;15.15;84.22
76086;BME280;64791;0.000;0.000;2023-07-02T04:24:46;93170.94;;;15.19;83.63
76086;BME280;64791;0.000;0.000;2023-07-02T04:27:16;93169.06;;;15.33;82.03
76086;BME280;64791;0.000;0.000;2023-07-02T04:29:45;93180.06;;;15.31;83.98
76086;BME280;64791;0.000;0.000;2023-07-02T04:32:11;93183.34;;;15.39;83.31
76086;BME280;64791;0.000;0.000;2023-07-02T04:34:36;93194.69;;;15.31;83.56
76086;BME280;64791;0.000;0.000;2023-07-02T04:37:03;93201.28;;;15.05;85.08
76086;BME280;64791;0.000;0.000;2023-07-02T04:39:29;93203.03;;;15.10;83.94
76086;BME280;64791;0.000;0.000;2023-07-02T04:41:55;93210.63;;;15.09;84.53
76086;BME280;64791;0.000;0.000;2023-07-02T04:44:21;93208.22;;;14.94;84.69
76086;BME280;64791;0.000;0.000;2023-07-02T04:46:57;93209.34;;;15.01;84.42
76086;BME280;64791;0.000;0.000;2023-07-02T04:49:23;93218.22;;;15.09;84.18
76086;BME280;64791;0.000;0.000;2023-07-02T04:51:48;93226.94;;;15.15;84.14
76086;BME280;64791;0.000;0.000;2023-07-02T04:54:14;93227.81;;;15.18;83.60
76086;BME280;64791;0.000;0.000;2023-07-02T04:56:39;93232.78;;;15.19;84.18
76086;BME280;64791;0.000;0.000;2023-07-02T04:59:05;93238.63;;;15.23;83.57
76086;BME280;64791;0.000;0.000;2023-07-02T05:01:31;93247.38;;;15.20;84.96
76086;BME280;64791;0.000;0.000;2023-07-02T05:03:56;93237.88;;;15.23;84.06
76086;BME280;64791;0.000;0.000;2023-07-02T05:06:22;93246.09;;;15.21;83.98
76086;BME280;64791;0.000;0.000;2023-07-02T05:08:48;93253.69;;;15.20;83.69
76086;BME280;64791;0.000;0.000;2023-07-02T05:11:14;93259.72;;;15.17;84.00
76086;BME280;64791;0.000;0.000;2023-07-02T05:13:39;93257.69;;;15.07;85.61
76086;BME280;64791;0.000;0.000;2023-07-02T05:16:05;93247.47;;;15.10;85.01
76086;BME280;64791;0.000;0.000;2023-07-02T05:18:31;93251.38;;;15.17;84.57
76086;BME280;64791;0.000;0.000;2023-07-02T05:20:57;93252.38;;;15.21;84.71
76086;BME280;64791;0.000;0.000;2023-07-02T05:23:22;93252.16;;;15.29;85.08
76086;BME280;64791;0.000;0.000;2023-07-02T05:25:48;93249.91;;;15.37;84.94
76086;BME280;64791;0.000;0.000;2023-07-02T05:28:14;93253.38;;;15.47;84.32
76086;BME280;64791;0.000;0.000;2023-07-02T05:30:39;93251.88;;;15.55;83.41
76086;BME280;64791;0.000;0.000;2023-07-02T05:33:05;93250.47;;;15.66;82.86
76086;BME280;64791;0.000;0.000;2023-07-02T05:35:31;93264.38;;;15.66;82.79
76086;BME280;64791;0.000;0.000;2023-07-02T05:37:56;93261.59;;;15.66;82.94
76086;BME280;64791;0.000;0.000;2023-07-02T05:40:22;93264.38;;;15.66;82.59
76086;BME280;64791;0.000;0.000;2023-07-02T05:42:48;93270.97;;;15.82;80.76
76086;BME280;64791;0.000;0.000;2023-07-02T05:45:14;93263.72;;;15.77;81.61
76086;BME280;64791;0.000;0.000;2023-07-02T05:47:39;93250.56;;;15.89;80.63
76086;BME280;64791;0.000;0.000;2023-07-02T05:50:05;93248.06;;;15.93;80.57
76086;BME280;64791;0.000;0.000;2023-07-02T05:52:31;93242.78;;;16.09;80.73
76086;BME280;64791;0.000;0.000;2023-07-02T05:54:57;93243.78;;;16.13;80.76
76086;BME280;64791;0.000;0.000;2023-07-02T05:57:23;93236.94;;;16.49;78.56
76086;BME280;64791;0.000;0.000;2023-07-02T05:59:48;93239.91;;;16.74;79.31
76086;BME280;64791;0.000;0.000;2023-07-02T06:02:14;93235.56;;;17.06;78.28
76086;BME280;64791;0.000;0.000;2023-07-02T06:04:40;93234.91;;;17.30;76.58
76086;BME280;64791;0.000;0.000;2023-07-02T06:07:06;93234.19;;;17.53;76.64
76086;BME280;64791;0.000;0.000;2023-07-02T06:09:31;93244.53;;;17.76;77.80
76086;BME280;64791;0.000;0.000;2023-07-02T06:11:58;93248.22;;;17.92;77.53
76086;BME280;64791;0.000;0.000;2023-07-02T06:14:24;93253.88;;;17.80;76.13
76086;BME280;64791;0.000;0.000;2023-07-02T06:16:51;93244.97;;;17.95;76.88
76086;BME280;64791;0.000;0.000;2023-07-02T06:19:17;93247.09;;;18.08;77.16
76086;BME280;64791;0.000;0.000;2023-07-02T06:21:43;93255.34;;;18.43;77.29
76086;BME280;64791;0.000;0.000;2023-07-02T06:24:09;93254.75;;;18.97;76.52
76086;BME280;64791;0.000;0.000;2023-07-02T06:26:35;93254.22;;;19.69;74.94
76086;BME280;64791;0.000;0.000;2023-07-02T06:29:00;93251.59;;;20.87;71.45
76086;BME280;64791;0.000;0.000;2023-07-02T06:31:26;93248.28;;;21.71;67.17
76086;BME280;64791;0.000;0.000;2023-07-02T06:33:52;93253.72;;;22.18;65.89
76086;BME280;64791;0.000;0.000;2023-07-02T06:36:18;93251.31;;;22.10;66.26
76086;BME280;64791;0.000;0.000;2023-07-02T06:38:44;93250.91;;;22.00;66.40
76086;BME280;64791;0.000;0.000;2023-07-02T06:41:10;93248.09;;;21.67;67.67
76086;BME280;64791;0.000;0.000;2023-07-02T06:43:35;93251.91;;;21.42;66.49
76086;BME280;64791;0.000;0.000;2023-07-02T06:46:01;93251.47;;;21.63;66.61
76086;BME280;64791;0.000;0.000;2023-07-02T06:48:27;93248.00;;;21.98;64.11
76086;BME280;64791;0.000;0.000;2023-07-02T06:50:53;93250.78;;;23.21;62.00
76086;BME280;64791;0.000;0.000;2023-07-02T06:53:19;93243.78;;;23.42;61.68
76086;BME280;64791;0.000;0.000;2023-07-02T06:55:44;93245.13;;;23.59;61.07
76086;BME280;64791;0.000;0.000;2023-07-02T06:58:10;93246.09;;;23.87;60.56
76086;BME280;64791;0.000;0.000;2023-07-02T07:00:36;93248.56;;;23.57;60.07
76086;BME280;64791;0.000;0.000;2023-07-02T07:03:05;93248.19;;;23.27;61.22
76086;BME280;64791;0.000;0.000;2023-07-02T07:05:31;93245.03;;;23.17;60.62
76086;BME280;64791;0.000;0.000;2023-07-02T07:07:57;93244.66;;;23.27;59.80
76086;BME280;64791;0.000;0.000;2023-07-02T07:10:23;93254.78;;;23.34;61.08
76086;BME280;64791;0.000;0.000;2023-07-02T07:12:49;93257.53;;;23.71;59.38
76086;BME280;64791;0.000;0.000;2023-07-02T07:15:15;93251.97;;;23.73;56.44
76086;BME280;64791;0.000;0.000;2023-07-02T07:17:40;93246.63;;;23.81;56.59
76086;BME280;64791;0.000;0.000;2023-07-02T07:20:06;93240.38;;;24.26;53.04
76086;BME280;64791;0.000;0.000;2023-07-02T07:22:33;93252.75;;;24.82;56.29
76086;BME280;64791;0.000;0.000;2023-07-02T07:24:59;93249.53;;;25.13;53.75
76086;BME280;64791;0.000;0.000;2023-07-02T07:27:25;93256.09;;;24.98;52.33
76086;BME280;64791;0.000;0.000;2023-07-02T07:29:51;93252.28;;;25.11;49.30
76086;BME280;64791;0.000;0.000;2023-07-02T07:32:17;93243.38;;;25.21;50.81
76086;BME280;64791;0.000;0.000;2023-07-02T07:34:42;93248.28;;;25.70;52.14
76086;BME280;64791;0.000;0.000;2023-07-02T07:37:08;93235.25;;;26.36;48.94
76086;BME280;64791;0.000;0.000;2023-07-02T07:39:34;93240.66;;;26.00;47.49
76086;BME280;64791;0.000;0.000;2023-07-02T07:42:00;93240.22;;;25.84;49.89
76086;BME280;64791;0.000;0.000;2023-07-02T07:44:26;93238.34;;;25.92;48.12
76086;BME280;64791;0.000;0.000;2023-07-02T07:46:55;93232.34;;;25.80;48.33
76086;BME280;64791;0.000;0.000;2023-07-02T07:49:21;93239.25;;;25.73;49.84
76086;BME280;64791;0.000;0.000;2023-07-02T07:51:47;93242.84;;;25.76;51.02
76086;BME280;64791;0.000;0.000;2023-07-02T07:54:13;93247.00;;;25.73;50.23
76086;BME280;64791;0.000;0.000;2023-07-02T07:56:38;93246.16;;;26.21;52.25
76086;BME280;64791;0.000;0.000;2023-07-02T07:59:04;93248.06;;;26.41;50.22
76086;BME280;64791;0.000;0.000;2023-07-02T08:01:30;93238.66;;;26.89;46.18
76086;BME280;64791;0.000;0.000;2023-07-02T08:03:56;93243.38;;;27.11;46.28
76086;BME280;64791;0.000;0.000;2023-07-02T08:06:22;93251.97;;;27.15;47.11
76086;BME280;64791;0.000;0.000;2023-07-02T08:08:48;93247.16;;;27.21;47.38
76086;BME280;64791;0.000;0.000;2023-07-02T08:11:14;93234.13;;;27.42;44.80
76086;BME280;64791;0.000;0.000;2023-07-02T08:13:39;93235.63;;;28.58;46.24
76086;BME280;64791;0.000;0.000;2023-07-02T08:16:05;93230.47;;;29.94;42.37
76086;BME280;64791;0.000;0.000;2023-07-02T08:18:31;93225.50;;;30.64;39.22
76086;BME280;64791;0.000;0.000;2023-07-02T08:20:56;93226.75;;;31.43;36.72
76086;BME280;64791;0.000;0.000;2023-07-02T08:23:22;93232.00;;;31.95;38.32
76086;BME280;64791;0.000;0.000;2023-07-02T08:25:48;93232.78;;;32.08;37.27
76086;BME280;64791;0.000;0.000;2023-07-02T08:28:14;93233.50;;;32.16;37.04
76086;BME280;64791;0.000;0.000;2023-07-02T08:30:39;93241.47;;;32.50;38.03
76086;BME280;64791;0.000;0.000;2023-07-02T08:33:05;93231.25;;;31.85;36.30
76086;BME280;64791;0.000;0.000;2023-07-02T08:35:31;93230.38;;;31.52;34.88
76086;BME280;64791;0.000;0.000;2023-07-02T08:37:57;93230.75;;;32.73;37.11
76086;BME280;64791;0.000;0.000;2023-07-02T08:40:22;93228.59;;;33.26;33.49
76086;BME280;64791;0.000;0.000;2023-07-02T08:42:48;93229.97;;;32.38;34.93
76086;BME280;64791;0.000;0.000;2023-07-02T08:45:17;93235.47;;;31.72;36.24
76086;BME280;64791;0.000;0.000;2023-07-02T08:47:43;93235.16;;;31.17;37.13
76086;BME280;64791;0.000;0.000;2023-07-02T08:50:09;93232.50;;;31.49;36.87
76086;BME280;64791;0.000;0.000;2023-07-02T08:52:35;93222.41;;;31.34;37.25
76086;BME280;64791;0.000;0.000;2023-07-02T08:55:01;93213.63;;;32.71;35.42
76086;BME280;64791;0.000;0.000;2023-07-02T08:57:26;93217.19;;;32.69;35.84
76086;BME280;64791;0.000;0.000;2023-07-02T08:59:52;93215.00;;;32.42;34.86
76086;BME280;64791;0.000;0.000;2023-07-02T09:02:19;93225.00;;;32.49;38.33
76086;BME280;64791;0.000;0.000;2023-07-02T09:05:01;93217.69;;;31.83;37.07
76086;BME280;64791;0.000;0.000;2023-07-02T09:07:27;93220.81;;;31.03;39.61
76086;BME280;64791;0.000;0.000;2023-07-02T09:09:53;93213.34;;;30.58;39.32
76086;BME280;64791;0.000;0.000;2023-07-02T09:12:29;93210.19;;;30.28;41.30
76086;BME280;64791;0.000;0.000;2023-07-02T09:14:56;93223.00;;;29.67;41.60
76086;BME280;64791;0.000;0.000;2023-07-02T09:17:26;93221.09;;;29.83;43.18
76086;BME280;64791;0.000;0.000;2023-07-02T09:19:52;93220.44;;;29.87;43.01
76086;BME280;64791;0.000;0.000;2023-07-02T09:22:18;93225.94;;;29.73;42.27
76086;BME280;64791;0.000;0.000;2023-07-02T09:24:54;93223.22;;;29.83;42.02
76086;BME280;64791;0.000;0.000;2023-07-02T09:27:20;93219.53;;;30.38;41.52
76086;BME280;64791;0.000;0.000;2023-07-02T09:29:50;93213.41;;;30.68;40.46
76086;BME280;64791;0.000;0.000;2023-07-02T09:32:23;93213.75;;;30.28;39.70
76086;BME280;64791;0.000;0.000;2023-07-02T09:34:49;93214.53;;;30.37;38.93
76086;BME280;64791;0.000;0.000;2023-07-02T09:37:16;93212.81;;;30.05;40.42
76086;BME280;64791;0.000;0.000;2023-07-02T09:39:41;93217.09;;;30.07;40.37
76086;BME280;64791;0.000;0.000;2023-07-02T09:42:08;93212.91;;;30.14;39.53
76086;BME280;64791;0.000;0.000;2023-07-02T09:44:34;93212.25;;;30.21;40.68
76086;BME280;64791;0.000;0.000;2023-07-02T09:47:01;93206.59;;;30.25;40.44
76086;BME280;64791;0.000;0.000;2023-07-02T09:49:31;93216.59;;;30.28;39.39
76086;BME280;64791;0.000;0.000;2023-07-02T09:51:59;93214.50;;;30.31;39.23
76086;BME280;64791;0.000;0.000;2023-07-02T09:54:24;93213.50;;;30.04;39.10
76086;BME280;64791;0.000;0.000;2023-07-02T09:56:50;93210.06;;;30.14;39.16
76086;BME280;64791;0.000;0.000;2023-07-02T09:59:16;93217.44;;;29.75;39.37
76086;BME280;64791;0.000;0.000;2023-07-02T10:01:42;93207.22;;;30.16;38.53
76086;BME280;64791;0.000;0.000;2023-07-02T10:04:14;93222.88;;;30.15;42.20
76086;BME280;64791;0.000;0.000;2023-07-02T10:06:47;93211.47;;;30.13;39.92
76086;BME280;64791;0.000;0.000;2023-07-02T10:09:13;93212.03;;;29.99;38.63
76086;BME280;64791;0.000;0.000;2023-07-02T10:11:39;93215.88;;;30.28;37.46
76086;BME280;64791;0.000;0.000;2023-07-02T10:14:04;93211.97;;;30.63;38.11
76086;BME280;64791;0.000;0.000;2023-07-02T10:16:30;93203.09;;;31.15;37.93
76086;BME280;64791;0.000;0.000;2023-07-02T10:19:10;93200.47;;;31.57;37.75
76086;BME280;64791;0.000;0.000;2023-07-02T10:21:36;93187.63;;;31.56;37.70
76086;BME280;64791;0.000;0.000;2023-07-02T10:24:11;93188.75;;;31.01;36.74
76086;BME280;64791;0.000;0.000;2023-07-02T10:26:37;93186.63;;;31.01;37.96
76086;BME280;64791;0.000;0.000;2023-07-02T10:29:03;93185.34;;;31.28;38.16
76086;BME280;64791;0.000;0.000;2023-07-02T10:31:29;93186.09;;;31.37;39.02
76086;BME280;64791;0.000;0.000;2023-07-02T10:33:55;93182.75;;;31.81;38.32
76086;BME280;64791;0.000;0.000;2023-07-02T10:36:21;93170.63;;;31.86;37.26
76086;BME280;64791;0.000;0.000;2023-07-02T10:38:48;93169.97;;;32.04;38.54
76086;BME280;64791;0.000;0.000;2023-07-02T10:41:27;93159.94;;;31.91;37.01
76086;BME280;64791;0.000;0.000;2023-07-02T10:43:54;93162.88;;;32.23;38.59
76086;BME280;64791;0.000;0.000;2023-07-02T10:46:22;93158.59;;;32.22;35.93
76086;BME280;64791;0.000;0.000;2023-07-02T10:48:54;93162.88;;;32.31;38.43
76086;BME280;64791;0.000;0.000;2023-07-02T10:51:20;93159.28;;;32.12;35.65
76086;BME280;64791;0.000;0.000;2023-07-02T10:53:56;93163.63;;;32.64;38.45
76086;BME280;64791;0.000;0.000;2023-07-02T10:56:22;93166.47;;;33.10;37.33
76086;BME280;64791;0.000;0.000;2023-07-02T10:58:48;93168.44;;;33.66;38.47
76086;BME280;64791;0.000;0.000;2023-07-02T11:01:23;93157.19;;;32.61;35.81
76086;BME280;64791;0.000;0.000;2023-07-02T11:04:02;93152.09;;;31.85;37.30
76086;BME280;64791;0.000;0.000;2023-07-02T11:06:29;93149.25;;;31.91;37.24
76086;BME280;64791;0.000;0.000;2023-07-02T11:08:56;93147.75;;;31.62;38.22
76086;BME280;64791;0.000;0.000;2023-07-02T11:11:23;93143.88;;;31.03;36.32
76086;BME280;64791;0.000;0.000;2023-07-02T11:13:49;93145.59;;;31.63;35.61
76086;BME280;64791;0.000;0.000;2023-07-02T11:16:19;93147.59;;;31.30;36.20
76086;BME280;64791;0.000;0.000;2023-07-02T11:18:45;93151.75;;;31.09;37.38
76086;BME280;64791;0.000;0.000;2023-07-02T11:21:11;93153.75;;;30.90;37.17
76086;BME280;64791;0.000;0.000;2023-07-02T11:23:37;93155.13;;;30.83;34.97
76086;BME280;64791;0.000;0.000;2023-07-02T11:26:03;93157.22;;;30.76;37.30
76086;BME280;64791;0.000;0.000;2023-07-02T11:28:29;93150.97;;;30.98;38.45
76086;BME280;64791;0.000;0.000;2023-07-02T11:30:56;93158.78;;;30.96;37.92
76086;BME280;64791;0.000;0.000;2023-07-02T11:33:38;93148.13;;;30.96;35.64
76086;BME280;64791;0.000;0.000;2023-07-02T11:36:05;93148.25;;;31.22;37.16
76086;BME280;64791;0.000;0.000;2023-07-02T11:38:32;93151.19;;;30.34;36.01
76086;BME280;64791;0.000;0.000;2023-07-02T11:40:58;93156.94;;;30.40;36.63
76086;BME280;64791;0.000;0.000;2023-07-02T11:43:24;93154.44;;;30.00;38.05
76086;BME280;64791;0.000;0.000;2023-07-02T11:45:51;93152.56;;;30.29;38.83
76086;BME280;64791;0.000;0.000;2023-07-02T11:48:17;93144.81;;;30.38;40.95
76086;BME280;64791;0.000;0.000;2023-07-02T11:50:43;93148.28;;;30.28;40.30
76086;BME280;64791;0.000;0.000;2023-07-02T11:53:09;93146.84;;;30.27;41.57
76086;BME280;64791;0.000;0.000;2023-07-02T11:55:36;93147.38;;;30.05;39.89
76086;BME280;64791;0.000;0.000;2023-07-02T11:58:02;93144.41;;;29.93;37.07
76086;BME280;64791;0.000;0.000;2023-07-02T12:00:27;93144.19;;;29.73;40.09
76086;BME280;64791;0.000;0.000;2023-07-02T12:02:53;93142.03;;;29.70;39.84
76086;BME280;64791;0.000;0.000;2023-07-02T12:05:19;93147.81;;;29.80;41.95
76086;BME280;64791;0.000;0.000;2023-07-02T12:07:45;93150.44;;;29.58;43.00
76086;BME280;64791;0.000;0.000;2023-07-02T12:10:11;93149.03;;;29.63;42.26
76086;BME280;64791;0.000;0.000;2023-07-02T12:12:36;93167.72;;;29.82;42.46
76086;BME280;64791;0.000;0.000;2023-07-02T12:15:02;93145.22;;;30.02;37.71
76086;BME280;64791;0.000;0.000;2023-07-02T12:17:28;93149.00;;;30.27;37.32
76086;BME280;64791;0.000;0.000;2023-07-02T12:19:54;93158.44;;;30.49;36.53
76086;BME280;64791;0.000;0.000;2023-07-02T12:22:20;93176.38;;;30.66;39.82
76086;BME280;64791;0.000;0.000;2023-07-02T12:24:48;93184.06;;;29.77;40.95
76086;BME280;64791;0.000;0.000;2023-07-02T12:27:15;93179.41;;;28.92;42.52
76086;BME280;64791;0.000;0.000;2023-07-02T12:29:42;93180.06;;;28.89;42.90
76086;BME280;64791;0.000;0.000;2023-07-02T12:32:08;93188.88;;;28.61;43.79
76086;BME280;64791;0.000;0.000;2023-07-02T12:34:34;93187.25;;;28.50;42.89
76086;BME280;64791;0.000;0.000;2023-07-02T12:36:59;93174.47;;;28.49;43.98
76086;BME280;64791;0.000;0.000;2023-07-02T12:39:25;93170.78;;;28.84;43.01
76086;BME280;64791;0.000;0.000;2023-07-02T12:41:52;93168.88;;;29.55;41.71
76086;BME280;64791;0.000;0.000;2023-07-02T12:44:18;93163.78;;;30.09;42.13
76086;BME280;64791;0.000;0.000;2023-07-02T12:46:44;93154.78;;;30.37;39.14
76086;BME280;64791;0.000;0.000;2023-07-02T12:49:10;93152.34;;;30.01;37.98
76086;BME280;64791;0.000;0.000;2023-07-02T12:51:35;93161.06;;;30.25;41.65
76086;BME280;64791;0.000;0.000;2023-07-02T12:54:01;93156.97;;;29.70;40.71
76086;BME280;64791;0.000;0.000;2023-07-02T12:56:28;93165.56;;;29.20;40.81
76086;BME280;64791;0.000;0.000;2023-07-02T12:58:54;93153.75;;;28.84;41.51
76086;BME280;64791;0.000;0.000;2023-07-02T13:01:19;93163.34;;;28.63;42.99
76086;BME280;64791;0.000;0.000;2023-07-02T13:03:46;93170.22;;;28.48;41.70
76086;BME280;64791;0.000;0.000;2023-07-02T13:06:13;93165.97;;;28.51;42.94
76086;BME280;64791;0.000;0.000;2023-07-02T13:08:39;93162.59;;;28.17;41.96